Time;durP1;ratioP1;P1;durP2;ratioP2;P2;SDS_P1;SDS_P2;PMS_P1;PMS_P2;Temp;Humidity;BMP_temperature;BMP_pressure;BME280_temperature;BME280_humidity;BME280_pressure;Samples;Min_cycle;Max_cycle;Signal;HPM_P1;HPM_P2
2022/09/25 00:00:55;;;;;;;;;1.00;1.00;;;;;15.54;93.26;98859.88;4972725;28;46413;-79
2022/09/25 00:03:23;;;;;;;;;1.40;1.40;;;;;15.53;93.68;98860.84;4973526;28;45511;-79
2022/09/25 00:05:49;;;;;;;;;1.50;1.50;;;;;15.50;93.49;98853.06;4974707;28;45393;-78
2022/09/25 00:08:16;;;;;;;;;0.50;0.00;;;;;15.50;93.83;98843.28;4974701;28;45516;-79
2022/09/25 00:10:46;;;;;;;;;2.00;2.00;;;;;15.48;92.93;98850.50;4974597;28;45661;-79
2022/09/25 00:13:13;;;;;;;;;1.00;1.00;;;;;15.44;92.44;98846.31;4974028;28;45445;-78
2022/09/25 00:15:48;;;;;;;;;1.25;0.75;;;;;15.42;92.54;98845.56;4974319;28;45528;-79
2022/09/25 00:18:13;;;;;;;;;1.50;1.50;;;;;15.41;92.79;98848.34;4970212;28;45409;-79
2022/09/25 00:20:39;;;;;;;;;1.50;1.50;;;;;15.39;92.66;98844.94;4972271;28;45478;-79
2022/09/25 00:23:04;;;;;;;;;1.75;0.75;;;;;15.39;92.52;98851.09;4974759;28;45404;-79
2022/09/25 00:25:30;;;;;;;;;0.00;0.00;;;;;15.36;92.79;98849.47;4973602;28;45412;-79
2022/09/25 00:27:55;;;;;;;;;2.25;0.50;;;;;15.35;92.79;98846.91;4974301;28;45438;-79
2022/09/25 00:30:21;;;;;;;;;1.50;1.50;;;;;15.35;93.00;98845.13;4972300;28;47698;-79
2022/09/25 00:32:46;;;;;;;;;1.00;1.00;;;;;15.35;93.57;98831.84;4969262;28;45376;-79
2022/09/25 00:35:12;;;;;;;;;2.75;2.75;;;;;15.33;93.43;98825.78;4973988;28;45312;-79
2022/09/25 00:37:37;;;;;;;;;1.50;1.50;;;;;15.34;93.79;98824.81;4974355;28;45358;-79
2022/09/25 00:40:04;;;;;;;;;3.00;3.00;;;;;15.34;93.41;98826.63;4973713;28;46254;-80
2022/09/25 00:42:30;;;;;;;;;2.60;2.20;;;;;15.35;93.27;98826.53;4986558;28;45493;-79
2022/09/25 00:44:57;;;;;;;;;1.25;1.25;;;;;15.33;92.86;98833.75;4974332;28;45719;-79
2022/09/25 00:47:58;;;;;;;;;0.50;0.50;;;;;15.32;92.93;98824.06;4975424;28;45504;-79
2022/09/25 00:50:35;;;;;;;;;1.50;1.50;;;;;15.31;92.80;98821.50;4973716;28;46050;-79
2022/09/25 00:53:26;;;;;;;;;1.40;1.40;;;;;15.30;92.90;98819.78;4969111;28;45438;-79
2022/09/25 00:55:54;;;;;;;;;2.25;2.25;;;;;15.28;92.81;98822.53;4974281;28;45250;-79
2022/09/25 00:58:23;;;;;;;;;0.00;0.00;;;;;15.28;92.59;98814.56;4972533;28;45522;-79
2022/09/25 01:00:50;;;;;;;;;0.60;0.60;;;;;15.26;93.27;98811.16;4976345;28;46332;-79
2022/09/25 01:03:17;;;;;;;;;1.60;1.60;;;;;15.29;93.83;98826.06;4977199;28;45540;-79
2022/09/25 01:05:44;;;;;;;;;1.00;1.00;;;;;15.32;92.76;98817.91;4977413;28;45402;-79
2022/09/25 01:08:18;;;;;;;;;1.50;1.00;;;;;15.32;92.85;98815.25;4977365;28;45551;-79
2022/09/25 01:10:44;;;;;;;;;1.25;1.25;;;;;15.33;93.10;98803.66;4976997;28;45400;-79
2022/09/25 01:13:11;;;;;;;;;2.25;2.25;;;;;15.33;92.88;98812.50;4958359;28;45534;-79
2022/09/25 01:16:13;;;;;;;;;2.25;1.50;;;;;15.33;92.96;98801.88;4970501;28;45418;-79
2022/09/25 01:18:46;;;;;;;;;1.00;0.50;;;;;15.33;91.77;98803.66;4968103;28;45579;-79
2022/09/25 01:21:26;;;;;;;;;0.40;0.00;;;;;15.31;92.57;98810.88;4974384;28;45550;-79
2022/09/25 01:24:00;;;;;;;;;1.00;1.00;;;;;15.29;92.11;98802.16;4976596;28;45353;-79
2022/09/25 01:27:07;;;;;;;;;1.00;1.00;;;;;15.28;91.67;98789.81;4976251;28;45425;-79
2022/09/25 01:29:43;;;;;;;;;1.50;1.50;;;;;15.27;91.93;98791.63;4956779;28;45864;-78
2022/09/25 01:32:20;;;;;;;;;1.75;1.00;;;;;15.26;92.12;98786.41;4975775;28;45454;-79
2022/09/25 01:35:11;;;;;;;;;1.60;1.20;;;;;15.25;92.40;98784.69;4971437;28;45371;-79
2022/09/25 01:37:51;;;;;;;;;1.75;1.75;;;;;15.25;92.11;98787.34;4965414;28;45288;-79
2022/09/25 01:40:32;;;;;;;;;2.25;1.25;;;;;15.25;92.07;98784.69;4970575;28;45376;-79
2022/09/25 01:43:10;;;;;;;;;0.00;0.00;;;;;15.25;91.76;98782.91;4982415;28;47195;-79
2022/09/25 01:45:43;;;;;;;;;1.20;1.00;;;;;15.24;91.39;98781.22;4972839;28;45485;-79
2022/09/25 01:48:12;;;;;;;;;0.40;0.40;;;;;15.24;91.95;98783.88;4976911;28;45433;-79
2022/09/25 01:50:49;;;;;;;;;1.75;1.50;;;;;15.24;92.22;98783.03;4971932;28;45562;-79
2022/09/25 01:53:21;;;;;;;;;2.00;2.00;;;;;15.23;92.32;98776.00;4976766;28;45594;-79
2022/09/25 01:55:54;;;;;;;;;1.80;1.80;;;;;15.23;92.90;98778.66;4976449;28;45490;-79
2022/09/25 01:58:55;;;;;;;;;1.50;1.50;;;;;15.25;92.73;98772.28;4976230;28;45311;-79
2022/09/25 02:01:26;;;;;;;;;1.50;1.50;;;;;15.27;93.04;98780.16;4975075;28;45463;-79
2022/09/25 02:04:02;;;;;;;;;1.50;1.50;;;;;15.26;92.62;98773.97;4969610;28;46259;-79
2022/09/25 02:06:31;;;;;;;;;1.60;1.60;;;;;15.27;92.59;98775.69;4977978;28;45398;-79
2022/09/25 02:09:06;;;;;;;;;3.00;1.25;;;;;15.27;92.98;98782.81;4976816;28;45429;-79
2022/09/25 02:11:38;;;;;;;;;1.25;1.25;;;;;15.27;92.68;98781.00;4975161;28;45387;-79
2022/09/25 02:14:32;;;;;;;;;0.60;0.60;;;;;15.28;92.43;98785.38;4974386;28;45691;-80
2022/09/25 02:16:57;;;;;;;;;1.00;1.00;;;;;15.30;92.70;98794.09;4971932;28;45439;-79
2022/09/25 02:22:19;;;;;;;;;2.00;2.00;;;;;15.31;92.82;98803.75;4970689;28;45438;-80
2022/09/25 02:24:55;;;;;;;;;0.75;0.75;;;;;15.34;92.63;98806.22;4970807;28;45454;-79
2022/09/25 02:27:23;;;;;;;;;2.20;2.20;;;;;15.35;92.61;98802.63;4971234;28;45475;-79
2022/09/25 02:29:49;;;;;;;;;3.75;3.75;;;;;15.36;93.27;98800.81;4975862;28;45319;-80
2022/09/25 02:32:19;;;;;;;;;2.50;2.50;;;;;15.41;93.33;98796.06;4975672;28;45420;-79
2022/09/25 02:34:45;;;;;;;;;3.75;3.75;;;;;15.44;93.12;98784.38;4970785;28;46346;-80
2022/09/25 02:37:11;;;;;;;;;2.50;2.00;;;;;15.46;93.31;98772.69;4980670;28;45870;-80
2022/09/25 02:39:38;;;;;;;;;2.75;2.75;;;;;15.48;93.75;98780.56;4976106;28;45329;-80
2022/09/25 02:42:31;;;;;;;;;3.50;3.50;;;;;15.50;93.49;98786.63;4975962;28;45536;-80
2022/09/25 02:45:12;;;;;;;;;3.50;3.50;;;;;15.51;92.90;98783.03;4974224;28;45564;-80
2022/09/25 02:48:27;;;;;;;;;4.00;3.40;;;;;15.54;92.96;98782.81;4969130;28;45383;-80
2022/09/25 02:51:15;;;;;;;;;2.50;1.75;;;;;15.49;92.52;98780.47;4970239;28;45392;-80
2022/09/25 02:53:45;;;;;;;;;2.25;2.25;;;;;15.49;92.97;98790.25;4975359;28;45442;-80
2022/09/25 02:56:21;;;;;;;;;4.25;2.75;;;;;15.48;92.99;98786.72;4975838;28;46417;-80
2022/09/25 02:58:54;;;;;;;;;5.80;4.20;;;;;15.45;93.54;98781.59;4964276;28;45440;-80
2022/09/25 03:01:24;;;;;;;;;4.75;4.00;;;;;15.34;94.02;98800.06;4972045;28;45443;-79
2022/09/25 03:03:54;;;;;;;;;3.25;3.25;;;;;15.23;92.93;98790.13;4975698;28;45514;-80
2022/09/25 03:06:21;;;;;;;;;3.75;3.75;;;;;15.14;93.76;98801.34;4980927;28;46820;-79
2022/09/25 03:08:51;;;;;;;;;3.40;3.40;;;;;15.11;94.18;98798.00;4975738;28;45360;-82
2022/09/25 03:11:20;;;;;;;;;3.50;2.50;;;;;15.05;94.41;98801.06;4975661;28;45354;-81
2022/09/25 03:13:53;;;;;;;;;3.75;3.75;;;;;14.97;94.21;98799.75;4975093;28;45538;-82
2022/09/25 03:16:38;;;;;;;;;5.50;4.25;;;;;14.92;95.31;98793.88;4974882;28;45670;-79
2022/09/25 03:19:03;;;;;;;;;4.60;3.80;;;;;14.86;96.46;98793.41;4975140;28;45524;-79
2022/09/25 03:21:29;;;;;;;;;4.00;4.00;;;;;14.81;94.73;98792.84;4973565;28;45398;-80
2022/09/25 03:23:55;;;;;;;;;2.50;2.50;;;;;14.78;96.18;98795.69;4975093;28;45559;-80
2022/09/25 03:26:23;;;;;;;;;5.00;3.75;;;;;14.73;96.43;98806.59;4974158;28;45480;-82
2022/09/25 03:28:49;;;;;;;;;3.20;3.20;;;;;14.70;97.15;98804.13;4973817;28;45482;-82
2022/09/25 03:31:15;;;;;;;;;4.25;3.50;;;;;14.66;96.90;98798.16;4973339;28;45360;-80
2022/09/25 03:33:42;;;;;;;;;6.00;5.00;;;;;14.65;97.37;98803.56;4975499;28;45412;-82
2022/09/25 03:36:19;;;;;;;;;3.50;3.50;;;;;14.62;97.34;98801.09;4977798;28;45404;-81
2022/09/25 03:38:48;;;;;;;;;4.50;4.25;;;;;14.60;97.71;98789.72;4975219;28;45341;-81
2022/09/25 03:41:19;;;;;;;;;4.25;3.50;;;;;14.57;98.08;98782.81;4967400;28;45395;-81
2022/09/25 03:43:46;;;;;;;;;3.75;3.75;;;;;14.58;97.99;98784.50;4973487;28;45398;-80
2022/09/25 03:46:13;;;;;;;;;5.50;5.00;;;;;14.62;98.09;98785.16;4979009;28;45366;-80
2022/09/25 03:48:39;;;;;;;;;3.25;3.25;;;;;14.67;98.44;98793.72;4977085;28;45394;-81
2022/09/25 03:51:06;;;;;;;;;4.00;3.00;;;;;14.72;98.28;98788.13;4974289;28;45534;-79
2022/09/25 03:53:32;;;;;;;;;2.50;2.50;;;;;14.76;97.97;98790.47;4974758;28;45362;-79
2022/09/25 03:56:02;;;;;;;;;1.00;1.00;;;;;14.79;96.72;98792.09;4974163;28;46176;-79
2022/09/25 03:58:28;;;;;;;;;1.60;1.60;;;;;14.82;97.17;98797.19;4963032;28;45447;-79
2022/09/25 04:00:56;;;;;;;;;3.00;2.75;;;;;14.84;97.18;98790.84;4975067;28;45367;-80
2022/09/25 04:03:28;;;;;;;;;2.75;2.25;;;;;14.87;97.24;98790.66;4974483;28;45358;-79
2022/09/25 04:05:58;;;;;;;;;1.80;1.80;;;;;14.89;97.00;98783.47;4995410;28;47934;-79
2022/09/25 04:08:25;;;;;;;;;4.20;2.80;;;;;14.92;96.77;98782.41;4973020;28;45453;-79
2022/09/25 04:10:57;;;;;;;;;1.00;1.00;;;;;14.94;96.56;98775.19;4974737;28;45639;-79
2022/09/25 04:13:23;;;;;;;;;3.00;2.00;;;;;14.94;96.67;98769.88;4974533;28;45496;-74
2022/09/25 04:15:48;;;;;;;;;2.25;1.75;;;;;14.96;96.77;98768.00;4967099;28;45585;-74
2022/09/25 04:18:14;;;;;;;;;1.50;1.50;;;;;14.96;96.62;98760.88;4974277;28;45358;-74
2022/09/25 04:20:39;;;;;;;;;2.00;2.00;;;;;14.99;96.82;98767.78;4973951;28;45361;-74
2022/09/25 04:23:05;;;;;;;;;1.00;1.00;;;;;14.99;95.97;98771.31;4974416;28;45430;-75
2022/09/25 04:25:30;;;;;;;;;1.00;1.00;;;;;15.01;96.33;98779.19;4973416;28;45438;-75
2022/09/25 04:27:57;;;;;;;;;2.25;2.00;;;;;15.04;96.48;98789.59;4974363;28;45300;-75
2022/09/25 04:30:23;;;;;;;;;1.00;1.00;;;;;15.06;96.01;98784.19;4969631;28;45442;-74
2022/09/25 04:35:34;;;;;;;;;0.40;0.40;;;;;15.11;96.00;98776.78;4974149;28;45537;-74
2022/09/25 04:38:00;;;;;;;;;0.50;0.50;;;;;15.12;95.98;98762.53;4992903;28;45371;-74
2022/09/25 04:40:26;;;;;;;;;4.00;2.25;;;;;15.14;95.83;98771.28;4975332;28;45446;-74
2022/09/25 04:42:59;;;;;;;;;3.00;3.00;;;;;15.14;95.91;98782.75;4977118;28;45580;-74
2022/09/25 04:45:25;;;;;;;;;3.00;2.00;;;;;15.13;95.92;98780.19;4973491;28;46612;-74
2022/09/25 04:47:55;;;;;;;;;0.75;0.75;;;;;15.13;95.65;98782.84;4977493;28;45384;-74
2022/09/25 04:50:21;;;;;;;;;1.60;1.60;;;;;15.13;96.03;98785.50;4976985;28;45574;-74
2022/09/25 04:52:50;;;;;;;;;1.50;1.50;;;;;15.13;95.59;98789.00;4975174;28;45513;-75
2022/09/25 04:55:16;;;;;;;;;3.50;2.25;;;;;15.10;94.90;98786.53;4976679;28;45649;-74
2022/09/25 04:57:41;;;;;;;;;1.80;1.20;;;;;15.08;96.00;98790.28;4976621;28;45385;-74
2022/09/25 05:00:08;;;;;;;;;2.50;2.50;;;;;15.03;95.44;98787.91;4976783;28;45482;-74
2022/09/25 05:02:33;;;;;;;;;1.50;1.50;;;;;14.96;95.61;98794.53;4977012;28;45489;-75
2022/09/25 05:04:59;;;;;;;;;2.00;2.00;;;;;14.90;95.86;98798.44;4973455;28;48699;-75
2022/09/25 05:07:24;;;;;;;;;5.00;3.25;;;;;14.84;96.59;98790.84;4983177;28;45430;-75
2022/09/25 05:09:49;;;;;;;;;4.00;4.00;;;;;14.87;96.84;98795.13;4976084;28;45398;-75
2022/09/25 05:12:15;;;;;;;;;3.75;3.75;;;;;14.89;97.25;98787.91;4965260;28;45579;-75
2022/09/25 05:14:41;;;;;;;;;1.75;1.50;;;;;14.93;96.09;98787.59;4976436;28;46318;-74
2022/09/25 05:17:10;;;;;;;;;2.60;2.60;;;;;14.94;95.82;98788.47;4976180;28;45437;-75
2022/09/25 05:19:36;;;;;;;;;2.50;2.00;;;;;14.96;96.58;98786.56;4976250;28;45406;-75
2022/09/25 05:22:01;;;;;;;;;3.00;2.50;;;;;14.98;96.49;98788.19;4976721;28;45450;-75
2022/09/25 05:24:26;;;;;;;;;3.00;3.00;;;;;15.00;96.46;98788.94;4973743;28;45454;-75
2022/09/25 05:26:52;;;;;;;;;3.00;3.00;;;;;15.02;96.62;98795.00;4970632;28;45382;-75
2022/09/25 05:29:17;;;;;;;;;3.00;2.00;;;;;15.04;96.96;98794.06;4976214;28;45792;-75
2022/09/25 05:31:45;;;;;;;;;3.75;2.50;;;;;15.05;97.39;98790.47;4975969;28;45493;-75
2022/09/25 05:34:12;;;;;;;;;2.75;2.75;;;;;15.07;97.08;98780.59;4991030;28;45756;-75
2022/09/25 05:36:37;;;;;;;;;1.60;1.60;;;;;15.07;96.84;98783.25;4974607;28;45484;-75
2022/09/25 05:39:03;;;;;;;;;2.25;2.25;;;;;15.07;96.52;98772.63;4976522;28;45426;-75
2022/09/25 05:41:30;;;;;;;;;1.50;1.50;;;;;15.09;96.34;98773.34;4975811;28;45385;-75
2022/09/25 05:43:56;;;;;;;;;0.00;0.00;;;;;15.10;96.51;98777.72;4974415;28;47113;-75
2022/09/25 05:46:22;;;;;;;;;3.80;3.80;;;;;15.11;96.72;98772.31;4973227;28;45386;-75
2022/09/25 05:48:47;;;;;;;;;3.25;2.75;;;;;15.12;97.00;98789.09;4975773;28;45403;-75
2022/09/25 05:51:13;;;;;;;;;3.75;3.00;;;;;15.14;97.03;98784.56;4975573;28;45565;-76
2022/09/25 05:53:38;;;;;;;;;2.75;2.75;;;;;15.13;96.77;98794.31;4991176;28;48402;-76
2022/09/25 05:56:04;;;;;;;;;5.75;5.75;;;;;15.13;97.02;98796.97;4972519;28;45438;-76
2022/09/25 05:58:32;;;;;;;;;4.75;4.25;;;;;15.11;96.39;98784.75;4973060;28;45483;-76
2022/09/25 06:01:02;;;;;;;;;5.00;4.50;;;;;15.11;97.22;98787.38;4985325;28;45558;-75
2022/09/25 06:03:29;;;;;;;;;4.25;4.25;;;;;15.12;97.13;98794.41;4974487;28;45513;-76
2022/09/25 06:05:59;;;;;;;;;6.00;5.00;;;;;15.14;97.56;98792.50;4971835;28;45403;-76
2022/09/25 06:08:25;;;;;;;;;3.00;3.00;;;;;15.16;96.95;98796.78;4964616;28;45638;-76
2022/09/25 06:10:54;;;;;;;;;3.00;3.00;;;;;15.16;96.67;98798.59;4973283;28;45479;-76
2022/09/25 06:13:24;;;;;;;;;2.25;2.25;;;;;15.17;97.47;98798.50;4975464;28;45532;-76
2022/09/25 06:15:51;;;;;;;;;6.75;5.75;;;;;15.20;96.47;98805.41;4968330;28;45448;-76
2022/09/25 06:18:18;;;;;;;;;2.75;2.75;;;;;15.22;97.00;98808.81;4973853;28;45447;-76
2022/09/25 06:20:44;;;;;;;;;4.50;4.50;;;;;15.25;96.78;98809.47;4975153;28;45416;-76
2022/09/25 06:23:09;;;;;;;;;3.50;2.75;;;;;15.27;96.76;98807.56;4971927;28;46613;-75
2022/09/25 06:25:37;;;;;;;;;2.75;2.75;;;;;15.30;96.57;98810.03;4974059;28;45409;-76
2022/09/25 06:28:04;;;;;;;;;3.25;2.50;;;;;15.32;95.65;98801.97;4975716;28;45395;-75
2022/09/25 06:30:35;;;;;;;;;2.50;2.50;;;;;15.34;95.45;98806.22;4971432;28;45596;-75
2022/09/25 06:33:11;;;;;;;;;3.25;3.25;;;;;15.37;96.10;98813.16;4975122;28;45466;-76
2022/09/25 06:35:47;;;;;;;;;4.60;4.60;;;;;15.40;95.62;98814.75;4972062;28;45434;-76
2022/09/25 06:38:14;;;;;;;;;3.50;2.50;;;;;15.42;95.49;98816.34;4974030;28;45572;-75
2022/09/25 06:40:40;;;;;;;;;2.50;2.50;;;;;15.45;95.39;98817.94;4973580;28;45450;-76
2022/09/25 06:43:09;;;;;;;;;4.75;4.25;;;;;15.48;95.28;98823.06;4973881;28;46232;-76
2022/09/25 06:45:38;;;;;;;;;2.00;2.00;;;;;15.49;94.96;98819.47;4974646;28;45450;-76
2022/09/25 06:48:15;;;;;;;;;2.00;2.00;;;;;15.49;94.55;98822.97;4974291;28;45434;-75
2022/09/25 06:50:40;;;;;;;;;2.50;2.50;;;;;15.50;94.29;98827.34;4967390;28;45597;-76
2022/09/25 06:53:06;;;;;;;;;0.50;0.50;;;;;15.49;94.26;98822.13;4971948;28;45886;-74
2022/09/25 06:55:31;;;;;;;;;2.50;2.50;;;;;15.50;94.40;98816.72;4974135;28;45493;-75
2022/09/25 06:57:57;;;;;;;;;3.25;3.25;;;;;15.50;93.96;98821.16;4970382;28;45561;-75
2022/09/25 07:00:23;;;;;;;;;3.50;3.50;;;;;15.47;94.22;98822.22;4972061;28;45445;-74
2022/09/25 07:05:33;;;;;;;;;3.40;3.40;;;;;15.37;94.65;98823.78;4973804;28;45354;-74
2022/09/25 07:07:58;;;;;;;;;2.75;2.75;;;;;15.32;94.17;98821.41;4973109;28;45390;-74
2022/09/25 07:10:24;;;;;;;;;5.75;4.25;;;;;15.31;94.63;98826.81;4964700;28;45555;-75
2022/09/25 07:12:49;;;;;;;;;3.50;3.50;;;;;15.30;94.85;98830.41;4974130;28;45746;-74
2022/09/25 07:15:15;;;;;;;;;3.50;3.50;;;;;15.28;94.80;98832.31;4987446;28;45442;-74
2022/09/25 07:17:41;;;;;;;;;3.00;3.00;;;;;15.27;94.99;98823.50;4961839;28;45471;-75
2022/09/25 07:20:07;;;;;;;;;5.00;3.50;;;;;15.28;94.79;98824.34;4974122;28;45623;-75
2022/09/25 07:22:33;;;;;;;;;1.75;1.75;;;;;15.30;94.52;98818.00;4974322;28;45408;-75
2022/09/25 07:24:58;;;;;;;;;6.25;5.25;;;;;15.31;95.04;98819.69;4970009;28;45220;-75
2022/09/25 07:27:23;;;;;;;;;3.50;3.50;;;;;15.34;95.22;98821.31;4973819;28;45678;-75
2022/09/25 07:29:50;;;;;;;;;4.25;3.75;;;;;15.34;94.87;98818.66;4974339;28;45488;-74
2022/09/25 07:32:16;;;;;;;;;3.75;3.75;;;;;15.34;94.36;98822.16;4973908;28;46569;-75
2022/09/25 07:34:41;;;;;;;;;4.00;3.00;;;;;15.39;94.04;98821.88;4974272;28;45552;-75
2022/09/25 07:37:07;;;;;;;;;5.25;4.25;;;;;15.41;94.72;98821.78;4983737;28;45865;-75
2022/09/25 07:39:32;;;;;;;;;5.25;5.25;;;;;15.39;94.00;98813.91;4973154;28;45470;-78
2022/09/25 07:41:57;;;;;;;;;6.25;5.50;;;;;15.39;94.20;98813.91;4975549;28;46649;-78
2022/09/25 07:44:23;;;;;;;;;4.50;4.50;;;;;15.42;94.03;98821.66;4971222;28;45537;-76
2022/09/25 07:46:48;;;;;;;;;4.25;4.25;;;;;15.41;94.31;98821.78;4970278;28;45482;-78
2022/09/25 07:49:14;;;;;;;;;3.75;3.75;;;;;15.34;92.57;98822.16;4982915;28;45437;-76
2022/09/25 07:51:39;;;;;;;;;3.50;3.50;;;;;15.29;91.84;98823.41;4973970;28;46399;-78
2022/09/25 07:54:05;;;;;;;;;1.75;1.25;;;;;15.29;92.21;98823.41;4974241;28;45547;-76
2022/09/25 07:56:33;;;;;;;;;4.50;4.50;;;;;15.34;92.07;98834.59;4978673;28;45440;-76
2022/09/25 07:58:59;;;;;;;;;5.25;5.25;;;;;15.35;91.65;98836.28;4973515;28;45321;-75
2022/09/25 08:01:24;;;;;;;;;5.50;5.00;;;;;15.35;91.61;98834.50;4973924;28;45454;-76
2022/09/25 08:03:50;;;;;;;;;4.50;4.50;;;;;15.38;92.14;98829.94;4974243;28;45387;-75
2022/09/25 08:06:15;;;;;;;;;5.00;5.00;;;;;15.40;92.59;98836.88;4973386;28;45300;-75
2022/09/25 08:08:41;;;;;;;;;5.50;5.50;;;;;15.45;92.85;98841.84;4976055;28;45644;-77
2022/09/25 08:11:12;;;;;;;;;4.75;4.00;;;;;15.45;91.97;98840.06;4971471;28;45544;-75
2022/09/25 08:13:39;;;;;;;;;4.20;4.20;;;;;15.48;91.35;98841.66;4977285;28;45387;-77
2022/09/25 08:16:07;;;;;;;;;5.50;5.50;;;;;15.51;92.69;98844.13;4992929;28;45430;-76
2022/09/25 08:18:33;;;;;;;;;5.75;5.50;;;;;15.50;90.91;98851.25;4974940;28;45541;-76
2022/09/25 08:21:02;;;;;;;;;4.00;4.00;;;;;15.48;90.63;98850.50;4976766;28;46397;-76
2022/09/25 08:23:28;;;;;;;;;4.20;4.20;;;;;15.45;90.80;98848.03;4970782;28;45383;-76
2022/09/25 08:25:54;;;;;;;;;4.25;3.00;;;;;15.41;91.88;98846.53;4975546;28;45297;-76
2022/09/25 08:28:19;;;;;;;;;4.25;3.25;;;;;15.40;91.29;98844.84;4973094;28;45382;-76
2022/09/25 08:30:46;;;;;;;;;5.50;4.25;;;;;15.46;91.60;98851.53;4974143;28;46080;-76
2022/09/25 08:33:12;;;;;;;;;5.80;4.80;;;;;15.53;92.13;98853.72;4972175;28;45430;-76
2022/09/25 08:35:39;;;;;;;;;6.25;6.00;;;;;15.60;91.32;98849.72;4969777;28;45425;-75
2022/09/25 08:38:10;;;;;;;;;4.50;3.75;;;;;15.69;91.90;98858.91;4972248;28;45704;-76
2022/09/25 08:40:52;;;;;;;;;4.00;4.00;;;;;15.76;91.41;98864.66;4969072;28;45402;-76
2022/09/25 08:43:22;;;;;;;;;6.80;6.00;;;;;15.84;92.16;98867.69;4961944;28;45429;-76
2022/09/25 08:49:04;;;;;;;;;7.25;5.00;;;;;16.04;93.42;98875.22;4974031;28;45482;-76
2022/09/25 08:51:34;;;;;;;;;4.00;4.00;;;;;16.16;91.41;98871.72;4988226;28;47798;-76
2022/09/25 08:54:02;;;;;;;;;4.80;4.80;;;;;16.25;91.97;98881.78;4974955;28;45633;-76
2022/09/25 08:56:28;;;;;;;;;6.75;5.50;;;;;16.36;92.55;98886.38;4975490;28;45435;-76
2022/09/25 08:59:22;;;;;;;;;6.75;6.00;;;;;16.46;92.35;98892.75;4975550;28;45496;-76
2022/09/25 09:02:10;;;;;;;;;8.00;5.50;;;;;16.56;91.37;98893.84;4967163;28;46525;-76
2022/09/25 09:04:40;;;;;;;;;4.80;4.00;;;;;16.68;91.26;98890.38;4976499;28;45566;-76
2022/09/25 09:07:14;;;;;;;;;5.00;5.00;;;;;16.79;90.66;98896.75;4975350;28;45359;-76
2022/09/25 09:10:12;;;;;;;;;8.75;5.75;;;;;16.90;89.57;98897.75;4974144;28;45371;-76
2022/09/25 09:12:43;;;;;;;;;6.00;5.00;;;;;17.00;89.13;98896.13;4975933;28;46288;-76
2022/09/25 09:15:21;;;;;;;;;7.40;6.40;;;;;17.12;89.08;98891.75;4975800;28;45267;-75
2022/09/25 09:17:46;;;;;;;;;5.25;5.25;;;;;17.23;88.20;98896.34;4975588;28;45523;-75
2022/09/25 09:20:18;;;;;;;;;7.50;6.50;;;;;17.31;88.19;98892.16;4969023;28;45394;-75
2022/09/25 09:22:49;;;;;;;;;14.00;13.25;;;;;17.43;87.56;98893.94;4973795;28;45493;-75
2022/09/25 09:25:23;;;;;;;;;31.33;29.33;;;;;17.52;86.52;98894.25;4970557;28;45479;-75
2022/09/25 09:28:05;;;;;;;;;12.00;11.00;;;;;17.58;85.81;98888.50;4975968;28;45494;-75
2022/09/25 09:31:03;;;;;;;;;3.75;3.50;;;;;17.59;84.85;98893.72;4976277;28;45375;-75
2022/09/25 09:33:50;;;;;;;;;2.80;1.20;;;;;17.60;82.57;98891.88;4982793;28;47882;-74
2022/09/25 09:36:46;;;;;;;;;3.80;3.60;;;;;17.63;82.73;98899.66;4972209;28;45646;-74
2022/09/25 09:39:11;;;;;;;;;4.20;4.00;;;;;17.67;83.57;98895.84;4976761;28;45518;-74
2022/09/25 09:42:13;;;;;;;;;2.00;2.00;;;;;17.65;82.74;98901.28;4975007;28;45646;-74
2022/09/25 09:44:57;;;;;;;;;4.00;3.00;;;;;17.64;82.55;98899.56;4975733;28;45517;-74
2022/09/25 09:47:40;;;;;;;;;4.20;3.80;;;;;17.63;82.66;98896.97;4973394;28;45407;-74
2022/09/25 09:50:29;;;;;;;;;2.40;2.20;;;;;17.64;82.84;98898.72;4972868;28;45405;-74
2022/09/25 09:53:02;;;;;;;;;4.00;4.00;;;;;17.70;82.96;98892.94;4974885;28;45448;-74
2022/09/25 09:55:42;;;;;;;;;4.00;4.00;;;;;17.74;83.35;98897.09;4974864;28;45536;-75
2022/09/25 09:58:24;;;;;;;;;5.40;5.20;;;;;17.81;82.51;98900.16;4975443;28;45451;-75
2022/09/25 10:00:50;;;;;;;;;5.50;4.25;;;;;17.85;82.87;98899.84;4973738;28;45505;-74
2022/09/25 10:03:28;;;;;;;;;1.00;1.00;;;;;17.89;82.60;98906.66;4975288;28;45408;-74
2022/09/25 10:06:01;;;;;;;;;2.00;2.00;;;;;17.94;82.53;98903.63;4975003;28;46229;-74
2022/09/25 10:08:28;;;;;;;;;5.80;5.20;;;;;17.98;82.52;98891.78;4974914;28;45401;-75
2022/09/25 10:10:53;;;;;;;;;1.25;1.25;;;;;18.03;82.15;98897.63;4973314;28;45485;-74
2022/09/25 10:13:19;;;;;;;;;4.25;4.25;;;;;18.07;82.46;98889.28;4975276;28;45455;-75
2022/09/25 10:16:05;;;;;;;;;4.00;4.00;;;;;18.10;81.98;98891.69;4970629;28;47090;-75
2022/09/25 10:18:39;;;;;;;;;4.20;3.80;;;;;18.17;81.09;98897.44;4966653;28;45382;-74
2022/09/25 10:21:44;;;;;;;;;3.00;3.00;;;;;18.29;81.01;98891.19;4971656;28;45364;-74
2022/09/25 10:24:51;;;;;;;;;4.00;4.00;;;;;18.37;81.25;98890.63;4971667;28;45582;-74
2022/09/25 10:27:28;;;;;;;;;4.40;3.60;;;;;18.39;80.27;98889.53;4970745;28;46326;-74
2022/09/25 10:30:20;;;;;;;;;3.80;2.20;;;;;18.43;80.55;98890.97;4974770;28;45432;-75
2022/09/25 10:32:58;;;;;;;;;4.00;3.00;;;;;18.55;80.10;98897.22;4985363;28;45454;-74
2022/09/25 10:35:47;;;;;;;;;4.00;4.00;;;;;18.66;79.71;98902.63;4985707;28;45537;-74
2022/09/25 10:38:42;;;;;;;;;2.00;2.00;;;;;18.79;79.27;98894.50;4973248;28;47574;-74
2022/09/25 10:41:11;;;;;;;;;2.00;2.00;;;;;18.83;77.40;98891.50;4966588;28;45601;-74
2022/09/25 10:43:55;;;;;;;;;3.80;3.80;;;;;18.84;78.25;98895.03;4974605;28;45513;-74
2022/09/25 10:52:07;;;;;;;;;3.40;2.80;;;;;18.82;78.45;98900.47;4972765;28;45437;-76
2022/09/25 10:54:34;;;;;;;;;2.20;2.20;;;;;18.79;77.42;98892.69;4975432;28;45388;-73
2022/09/25 10:57:00;;;;;;;;;3.50;3.00;;;;;18.82;78.04;98897.81;4961051;28;45497;-73
2022/09/25 10:59:27;;;;;;;;;4.00;4.00;;;;;18.85;77.33;98895.88;4968001;28;46746;-74
2022/09/25 11:01:54;;;;;;;;;2.60;2.60;;;;;18.87;77.11;98893.94;4974295;28;45514;-74
2022/09/25 11:04:28;;;;;;;;;5.50;4.00;;;;;18.93;76.65;98891.66;4974542;28;45478;-74
2022/09/25 11:07:14;;;;;;;;;5.00;5.00;;;;;18.90;75.59;98889.22;4979467;28;45539;-74
2022/09/25 11:09:43;;;;;;;;;5.75;3.50;;;;;18.89;75.98;98887.50;4971447;28;45636;-75
2022/09/25 11:12:20;;;;;;;;;2.80;2.80;;;;;18.93;76.19;98888.13;4972599;28;45411;-74
2022/09/25 11:14:57;;;;;;;;;0.00;0.00;;;;;18.92;74.75;98892.63;4973252;28;45474;-74
2022/09/25 11:17:44;;;;;;;;;2.50;2.25;;;;;18.87;74.88;98896.59;4974407;28;45491;-73
2022/09/25 11:20:11;;;;;;;;;8.00;5.25;;;;;18.78;75.89;98895.47;4963888;28;46217;-73
2022/09/25 11:22:40;;;;;;;;;3.80;3.60;;;;;18.72;74.31;98907.50;4974497;28;45363;-74
2022/09/25 11:25:10;;;;;;;;;2.00;2.00;;;;;18.68;74.05;98898.03;4974239;28;45315;-74
2022/09/25 11:27:44;;;;;;;;;2.25;2.00;;;;;18.66;74.27;98901.78;4972794;28;46097;-74
2022/09/25 11:30:16;;;;;;;;;4.20;3.80;;;;;18.65;75.86;98894.72;4972534;28;46573;-73
2022/09/25 11:33:10;;;;;;;;;2.00;2.00;;;;;18.69;75.08;98902.41;4973704;28;45623;-73
2022/09/25 11:35:41;;;;;;;;;2.20;2.20;;;;;18.73;74.31;98903.00;4963731;28;45654;-73
2022/09/25 11:41:31;;;;;;;;;3.00;3.00;;;;;18.40;72.62;98885.91;4972342;28;45260;-74
2022/09/25 11:44:09;;;;;;;;;3.00;3.00;;;;;18.26;72.64;98894.09;4971777;28;46108;-74
2022/09/25 11:46:53;;;;;;;;;2.25;2.00;;;;;18.15;73.00;98894.03;4963386;28;45359;-74
2022/09/25 11:49:30;;;;;;;;;2.75;2.75;;;;;18.17;73.79;98900.13;4957901;28;45377;-74
2022/09/25 11:52:17;;;;;;;;;4.00;3.00;;;;;18.21;73.89;98892.75;4959862;28;47563;-73
2022/09/25 11:55:09;;;;;;;;;2.00;2.00;;;;;18.28;74.94;98891.28;4965124;28;45527;-73
2022/09/25 11:57:59;;;;;;;;;2.80;2.80;;;;;18.41;75.96;98886.75;4965618;28;45680;-73
2022/09/25 12:00:48;;;;;;;;;4.00;4.00;;;;;18.55;75.76;98891.91;4973413;28;45562;-73
2022/09/25 12:03:13;;;;;;;;;3.00;3.00;;;;;18.68;75.44;98881.16;4970791;28;46497;-73
2022/09/25 12:06:07;;;;;;;;;3.75;3.75;;;;;18.77;75.59;98885.75;4974304;28;45318;-73
2022/09/25 12:08:54;;;;;;;;;4.00;3.00;;;;;18.85;75.24;98878.03;4973834;28;45614;-73
2022/09/25 12:11:44;;;;;;;;;3.75;3.75;;;;;18.99;75.44;98884.97;4974136;28;45550;-73
2022/09/25 12:14:21;;;;;;;;;4.00;2.00;;;;;19.07;74.04;98882.53;4973154;28;45528;-75
2022/09/25 12:16:56;;;;;;;;;4.00;3.80;;;;;19.15;74.07;98880.09;4973880;28;45450;-74